createdAt,value
2022-12-14T00:00:11.861Z,7.32
2022-12-14T00:01:20.428Z,6.65
2022-12-14T00:02:22.762Z,7.32
2022-12-14T00:03:25.392Z,5.53
2022-12-14T00:04:27.787Z,6.75
2022-12-14T00:05:30.034Z,7.32
2022-12-14T00:06:33.508Z,7.00
2022-12-14T00:07:35.811Z,5.75
2022-12-14T00:08:41.719Z,6.50
2022-12-14T00:09:45.663Z,5.82
2022-12-14T00:10:47.875Z,7.93
2022-12-14T00:11:50.142Z,6.40
2022-12-14T00:12:52.448Z,7.88
2022-12-14T00:13:57.521Z,13.52
2022-12-14T00:14:59.807Z,144.30
2022-12-14T00:16:17.365Z,240.73
2022-12-14T00:17:19.777Z,153.90
2022-12-14T00:18:22.716Z,105.25
2022-12-14T00:19:25.225Z,76.88
2022-12-14T00:20:27.502Z,61.72
2022-12-14T00:21:30.212Z,45.22
2022-12-14T00:22:32.571Z,42.85
2022-12-14T00:23:38.948Z,39.13
2022-12-14T00:24:41.871Z,36.38
2022-12-14T00:25:44.159Z,36.85
2022-12-14T00:26:51.337Z,32.10
2022-12-14T00:27:54.386Z,31.85
2022-12-14T00:28:57.438Z,38.50
2022-12-14T00:29:59.972Z,33.58
2022-12-14T00:31:02.991Z,176.48
2022-12-14T00:32:05.966Z,90.65
2022-12-14T00:33:08.439Z,106.03
2022-12-14T00:34:10.979Z,91.38
2022-12-14T00:35:17.121Z,83.57
2022-12-14T00:36:19.838Z,74.80
2022-12-14T00:37:22.112Z,59.72
2022-12-14T00:38:24.859Z,51.03
2022-12-14T00:39:27.449Z,48.05
2022-12-14T00:40:29.912Z,38.58
2022-12-14T00:41:32.202Z,39.42
2022-12-14T00:42:34.857Z,43.50
2022-12-14T00:43:37.499Z,37.78
2022-12-14T00:44:40.612Z,34.85
2022-12-14T00:45:46.409Z,34.00
2022-12-14T00:46:48.748Z,37.60
2022-12-14T00:47:51.018Z,38.58
2022-12-14T00:48:53.366Z,34.33
2022-12-14T00:49:55.636Z,31.63
2022-12-14T00:50:57.972Z,29.30
2022-12-14T00:52:00.533Z,32.88
2022-12-14T00:53:02.954Z,120.72
2022-12-14T00:54:05.575Z,116.07
2022-12-14T00:55:08.258Z,126.07
2022-12-14T00:56:11.456Z,230.88
2022-12-14T00:57:13.838Z,158.45
2022-12-14T00:58:17.910Z,120.65
2022-12-14T00:59:25.662Z,86.95
2022-12-14T01:00:32.790Z,65.32
2022-12-14T01:01:35.755Z,63.78
2022-12-14T01:02:38.180Z,61.72
2022-12-14T01:03:40.626Z,64.53
2022-12-14T01:04:42.916Z,60.45
2022-12-14T01:05:49.086Z,58.92
2022-12-14T01:06:53.876Z,53.10
2022-12-14T01:07:56.792Z,56.97
2022-12-14T01:08:59.054Z,57.03
2022-12-14T01:10:01.380Z,50.50
2022-12-14T01:11:08.325Z,46.80
2022-12-14T01:12:10.701Z,47.22
2022-12-14T01:13:13.015Z,53.67
2022-12-14T01:14:18.467Z,43.72
2022-12-14T01:15:20.813Z,42.50
2022-12-14T01:16:23.308Z,41.50
2022-12-14T01:17:25.609Z,39.35
2022-12-14T01:18:27.937Z,41.15
2022-12-14T01:19:30.360Z,32.42
2022-12-14T01:20:32.666Z,348.63
2022-12-14T01:21:35.154Z,276.95
2022-12-14T01:22:37.945Z,261.73
2022-12-14T01:23:40.285Z,180.75
2022-12-14T01:24:44.348Z,215.57
2022-12-14T01:25:48.946Z,236.50
2022-12-14T01:26:51.787Z,194.60
2022-12-14T01:27:54.152Z,156.60
2022-12-14T01:28:58.622Z,131.70
2022-12-14T01:30:00.972Z,120.07
2022-12-14T01:31:10.228Z,95.18
2022-12-14T01:32:12.727Z,106.13
2022-12-14T01:33:15.290Z,90.05
2022-12-14T01:34:17.670Z,92.00
2022-12-14T01:35:19.930Z,95.60
2022-12-14T01:36:25.748Z,87.90
2022-12-14T01:37:28.787Z,88.38
2022-12-14T01:38:31.576Z,93.32
2022-12-14T01:39:33.837Z,85.07
2022-12-14T01:40:36.194Z,83.30
2022-12-14T01:41:41.573Z,64.30
2022-12-14T01:42:43.860Z,64.40
2022-12-14T01:43:50.511Z,61.20
2022-12-14T01:44:56.074Z,61.63
2022-12-14T01:45:59.145Z,66.82
2022-12-14T01:47:17.356Z,70.80
2022-12-14T01:48:19.773Z,67.80
2022-12-14T01:49:38.146Z,61.22
2022-12-14T01:50:45.412Z,68.40
2022-12-14T01:51:56.129Z,64.85
2022-12-14T01:53:06.365Z,66.70
2022-12-14T01:54:12.208Z,66.13
2022-12-14T01:55:20.236Z,64.88
2022-12-14T01:56:22.828Z,65.35
2022-12-14T01:57:40.246Z,68.32
2022-12-14T01:58:42.558Z,63.58
2022-12-14T01:59:46.730Z,65.00
2022-12-14T02:00:53.033Z,61.30
2022-12-14T02:01:57.360Z,61.80
2022-12-14T02:03:08.413Z,63.03
2022-12-14T02:04:13.051Z,54.10
2022-12-14T02:05:17.273Z,55.50
2022-12-14T02:06:30.305Z,58.42
2022-12-14T02:07:33.156Z,59.88
2022-12-14T02:08:36.901Z,57.22
2022-12-14T02:09:41.898Z,57.65
2022-12-14T02:10:46.377Z,57.70
2022-12-14T02:12:09.650Z,57.58
2022-12-14T02:13:17.600Z,57.53
2022-12-14T02:14:19.894Z,57.45
2022-12-14T02:15:22.224Z,58.60
2022-12-14T02:16:24.609Z,58.50
2022-12-14T02:17:28.911Z,61.20
2022-12-14T02:18:32.250Z,61.72
2022-12-14T02:19:35.906Z,57.88
2022-12-14T02:21:19.804Z,51.42
2022-12-14T02:22:53.529Z,53.08
2022-12-14T02:24:07.456Z,54.25
2022-12-14T02:25:28.331Z,56.70
2022-12-14T02:26:57.214Z,53.83
2022-12-14T02:28:20.868Z,52.28
2022-12-14T02:29:26.225Z,50.30
2022-12-14T02:30:35.044Z,55.22
2022-12-14T02:32:15.149Z,52.90
2022-12-14T02:33:48.117Z,44.42
2022-12-14T02:34:57.273Z,43.00
2022-12-14T02:36:03.375Z,46.22
2022-12-14T02:37:18.256Z,40.05
2022-12-14T02:38:26.019Z,39.28
2022-12-14T02:39:45.677Z,43.78
2022-12-14T02:41:12.590Z,43.03
2022-12-14T02:42:22.938Z,46.08
2022-12-14T02:43:38.948Z,49.40
2022-12-14T02:45:11.520Z,44.67
2022-12-14T02:46:47.334Z,46.22
2022-12-14T02:48:07.004Z,44.60
2022-12-14T02:49:49.157Z,42.15
2022-12-14T02:51:03.835Z,40.63
2022-12-14T02:52:24.216Z,41.13
2022-12-14T02:53:36.286Z,45.50
2022-12-14T02:54:55.746Z,40.30
2022-12-14T02:56:03.483Z,39.40
2022-12-14T02:57:37.102Z,39.65
2022-12-14T02:58:50.387Z,40.50
2022-12-14T02:59:56.470Z,40.90
2022-12-14T03:00:59.866Z,37.10
2022-12-14T03:02:04.678Z,35.38
2022-12-14T03:03:07.683Z,38.72
2022-12-14T03:04:10.440Z,37.08
2022-12-14T03:05:12.829Z,36.53
2022-12-14T03:06:26.634Z,37.40
2022-12-14T03:07:52.609Z,34.70
2022-12-14T03:09:11.114Z,35.60
2022-12-14T03:10:25.588Z,30.77
2022-12-14T03:11:42.238Z,35.28
2022-12-14T03:12:50.650Z,34.60
2022-12-14T03:14:08.045Z,34.78
2022-12-14T03:15:12.580Z,35.00
2022-12-14T03:16:19.695Z,32.17
2022-12-14T03:17:27.466Z,38.17
2022-12-14T03:18:38.928Z,33.28
2022-12-14T03:19:47.349Z,32.85
2022-12-14T03:20:55.077Z,34.30
2022-12-14T03:22:01.601Z,30.15
2022-12-14T03:23:09.032Z,32.55
2022-12-14T03:24:16.925Z,33.03
2022-12-14T03:25:29.651Z,33.13
2022-12-14T03:26:47.330Z,30.05
2022-12-14T03:27:55.002Z,31.13
2022-12-14T03:29:09.454Z,32.53
2022-12-14T03:30:31.638Z,35.03
2022-12-14T03:32:02.222Z,32.47
2022-12-14T03:33:09.828Z,28.67
2022-12-14T03:34:15.065Z,32.17
2022-12-14T03:35:28.858Z,31.17
2022-12-14T03:36:42.391Z,28.25
2022-12-14T03:38:02.511Z,31.60
2022-12-14T03:39:10.453Z,29.92
2022-12-14T03:40:14.715Z,27.65
2022-12-14T03:41:31.262Z,29.63
2022-12-14T03:42:42.155Z,29.98
2022-12-14T03:44:09.665Z,30.13
2022-12-14T03:45:29.101Z,30.48
2022-12-14T03:46:44.153Z,30.63
2022-12-14T03:48:01.240Z,31.63
2022-12-14T03:49:36.571Z,28.98
2022-12-14T03:50:41.621Z,27.50
2022-12-14T03:52:12.198Z,31.33
2022-12-14T03:53:40.156Z,25.40
2022-12-14T03:55:17.408Z,26.33
2022-12-14T03:56:38.016Z,21.70
2022-12-14T03:57:43.201Z,25.58
2022-12-14T03:59:06.803Z,57.50
2022-12-14T04:00:16.669Z,251.88
2022-12-14T04:01:49.301Z,137.48
2022-12-14T04:03:14.843Z,120.85
2022-12-14T04:04:34.321Z,86.38
2022-12-14T04:05:59.050Z,71.97
2022-12-14T04:07:19.212Z,63.33
2022-12-14T04:08:48.692Z,57.35
2022-12-14T04:10:53.699Z,56.47
2022-12-14T04:12:47.947Z,50.80
2022-12-14T04:14:36.643Z,45.95
2022-12-14T04:15:58.724Z,49.67
2022-12-14T04:17:26.433Z,44.42
2022-12-14T04:18:59.891Z,44.80
2022-12-14T04:20:16.834Z,46.47
2022-12-14T04:21:34.609Z,48.95
2022-12-14T04:22:54.188Z,48.05
2022-12-14T04:24:19.815Z,46.83
2022-12-14T04:25:50.490Z,44.92
2022-12-14T04:26:59.906Z,41.42
2022-12-14T04:28:45.001Z,45.65
2022-12-14T04:29:56.350Z,41.97
2022-12-14T04:32:13.899Z,38.95
2022-12-14T04:33:35.709Z,41.20
2022-12-14T04:34:41.105Z,40.58
2022-12-14T04:35:44.003Z,41.85
2022-12-14T04:36:55.959Z,43.53
2022-12-14T04:38:32.169Z,40.10
2022-12-14T04:40:02.102Z,37.72
2022-12-14T04:41:08.950Z,41.50
2022-12-14T04:42:13.481Z,41.42
2022-12-14T04:43:21.244Z,56.47
2022-12-14T04:44:32.241Z,153.90
2022-12-14T04:45:40.831Z,181.73
2022-12-14T04:46:45.877Z,235.13
2022-12-14T04:47:59.146Z,197.43
2022-12-14T04:49:10.241Z,139.20
2022-12-14T04:50:25.540Z,102.40
2022-12-14T04:51:32.803Z,92.97
2022-12-14T04:52:45.913Z,82.18
2022-12-14T04:53:52.295Z,77.97
2022-12-14T04:55:22.401Z,78.03
2022-12-14T04:56:35.471Z,61.05
2022-12-14T04:57:51.538Z,50.83
2022-12-14T04:58:54.581Z,50.65
2022-12-14T04:59:58.313Z,53.13
2022-12-14T05:01:22.528Z,58.47
2022-12-14T05:02:35.315Z,49.35
2022-12-14T05:03:55.983Z,52.63
2022-12-14T05:05:28.537Z,56.88
2022-12-14T05:06:41.661Z,60.08
2022-12-14T05:07:59.677Z,56.75
2022-12-14T05:09:28.327Z,63.35
2022-12-14T05:10:38.137Z,53.53
2022-12-14T05:11:54.061Z,52.17
2022-12-14T05:13:04.770Z,52.92
2022-12-14T05:14:10.904Z,47.53
2022-12-14T05:15:18.475Z,48.78
2022-12-14T05:16:23.436Z,47.08
2022-12-14T05:17:26.701Z,44.45
2022-12-14T05:18:29.109Z,45.08
2022-12-14T05:19:31.557Z,45.92
2022-12-14T05:20:33.883Z,45.90
2022-12-14T05:21:49.093Z,43.33
2022-12-14T05:22:51.550Z,40.30
2022-12-14T05:23:53.795Z,41.47
2022-12-14T05:24:56.178Z,41.90
2022-12-14T05:25:58.469Z,41.10
2022-12-14T05:27:00.808Z,43.38
2022-12-14T05:28:03.336Z,39.65
2022-12-14T05:29:05.833Z,40.05
2022-12-14T05:30:09.066Z,46.50
2022-12-14T05:31:11.393Z,43.13
2022-12-14T05:32:13.907Z,41.67
2022-12-14T05:33:19.699Z,42.92
2022-12-14T05:34:22.676Z,50.58
2022-12-14T05:35:25.299Z,42.97
2022-12-14T05:36:27.832Z,48.78
2022-12-14T05:37:30.216Z,42.97
2022-12-14T05:38:32.481Z,42.83
2022-12-14T05:39:34.789Z,43.53
2022-12-14T05:40:37.037Z,36.40
2022-12-14T05:41:39.264Z,41.25
2022-12-14T05:42:45.325Z,37.63
2022-12-14T05:43:49.869Z,39.22
2022-12-14T05:44:52.125Z,47.25
2022-12-14T05:46:01.369Z,46.13
2022-12-14T05:47:03.939Z,42.33
2022-12-14T05:48:06.381Z,44.60
2022-12-14T05:49:08.812Z,42.15
2022-12-14T05:50:11.300Z,42.13
2022-12-14T05:51:14.389Z,41.50
2022-12-14T05:52:17.374Z,44.40
2022-12-14T05:53:19.804Z,38.40
2022-12-14T05:54:22.274Z,38.53
2022-12-14T05:55:25.016Z,45.42
2022-12-14T05:56:27.296Z,37.88
2022-12-14T05:57:30.616Z,37.78
2022-12-14T05:58:33.882Z,46.65
2022-12-14T05:59:36.238Z,48.70
2022-12-14T06:00:38.932Z,49.33
2022-12-14T06:01:49.437Z,39.30
2022-12-14T06:02:55.399Z,49.08
2022-12-14T06:03:59.026Z,38.92
2022-12-14T06:05:01.284Z,45.17
2022-12-14T06:06:06.197Z,34.33
2022-12-14T06:07:11.525Z,37.42
2022-12-14T06:08:13.829Z,31.38
2022-12-14T06:09:17.012Z,32.90
2022-12-14T06:10:19.334Z,33.72
2022-12-14T06:11:23.581Z,33.22
2022-12-14T06:12:26.220Z,32.63
2022-12-14T06:13:29.275Z,37.28
2022-12-14T06:14:32.098Z,35.17
2022-12-14T06:15:34.696Z,34.63
2022-12-14T06:16:40.628Z,37.08
2022-12-14T06:17:44.628Z,33.47
2022-12-14T06:18:49.746Z,30.73
2022-12-14T06:19:52.379Z,35.22
2022-12-14T06:20:56.693Z,38.53
2022-12-14T06:21:59.127Z,36.88
2022-12-14T06:23:01.524Z,39.45
2022-12-14T06:24:05.022Z,32.72
2022-12-14T06:25:08.401Z,41.78
2022-12-14T06:26:11.457Z,37.13
2022-12-14T06:27:13.768Z,34.20
2022-12-14T06:28:16.037Z,38.10
2022-12-14T06:29:19.550Z,34.53
2022-12-14T06:30:21.900Z,35.97
2022-12-14T06:31:32.603Z,39.25
2022-12-14T06:32:34.988Z,29.27
2022-12-14T06:33:37.313Z,32.05
2022-12-14T06:34:42.225Z,36.33
2022-12-14T06:35:45.892Z,36.08
2022-12-14T06:36:48.186Z,33.60
2022-12-14T06:37:50.509Z,33.50
2022-12-14T06:38:56.586Z,38.05
2022-12-14T06:39:58.870Z,32.83
2022-12-14T06:41:01.405Z,30.92
2022-12-14T06:42:03.793Z,33.75
2022-12-14T06:43:06.811Z,32.05
2022-12-14T06:44:13.100Z,30.70
2022-12-14T06:45:15.359Z,36.53
2022-12-14T06:46:20.264Z,37.15
2022-12-14T06:47:22.592Z,33.78
2022-12-14T06:48:24.925Z,30.92
2022-12-14T06:49:27.529Z,33.78
2022-12-14T06:50:30.196Z,28.70
2022-12-14T06:51:37.823Z,30.02
2022-12-14T06:52:40.521Z,32.72
2022-12-14T06:53:42.865Z,29.23
2022-12-14T06:54:45.207Z,32.30
2022-12-14T06:55:49.214Z,31.23
2022-12-14T06:56:51.708Z,31.45
2022-12-14T06:57:55.252Z,32.80
2022-12-14T06:58:57.779Z,30.02
2022-12-14T07:00:00.174Z,27.88
2022-12-14T07:01:04.909Z,29.42
2022-12-14T07:02:08.979Z,33.25
2022-12-14T07:03:11.509Z,27.30
2022-12-14T07:04:16.123Z,29.67
2022-12-14T07:05:18.517Z,29.65
2022-12-14T07:06:22.066Z,26.13
2022-12-14T07:07:24.453Z,31.27
2022-12-14T07:08:28.242Z,28.27
2022-12-14T07:09:30.553Z,30.33
2022-12-14T07:10:34.161Z,28.95
2022-12-14T07:11:36.510Z,28.38
2022-12-14T07:12:39.097Z,24.52
2022-12-14T07:13:41.844Z,31.13
2022-12-14T07:14:44.148Z,28.45
2022-12-14T07:15:52.770Z,26.55
2022-12-14T07:16:55.076Z,27.58
2022-12-14T07:17:57.386Z,25.35
2022-12-14T07:19:00.514Z,27.48
2022-12-14T07:20:04.286Z,28.08
2022-12-14T07:21:11.918Z,27.85
2022-12-14T07:22:14.384Z,25.10
2022-12-14T07:23:16.759Z,26.15
2022-12-14T07:24:19.205Z,28.33
2022-12-14T07:25:21.757Z,25.98
2022-12-14T07:26:27.402Z,27.20
2022-12-14T07:27:29.790Z,26.85
2022-12-14T07:28:32.481Z,27.67
2022-12-14T07:29:35.181Z,25.70
2022-12-14T07:30:37.753Z,25.10
2022-12-14T07:31:40.208Z,26.80
2022-12-14T07:32:42.539Z,26.83
2022-12-14T07:33:45.020Z,23.10
2022-12-14T07:34:48.021Z,26.55
2022-12-14T07:35:50.741Z,28.00
2022-12-14T07:36:53.564Z,24.17
2022-12-14T07:37:55.982Z,24.50
2022-12-14T07:38:58.433Z,23.40
2022-12-14T07:40:00.839Z,26.33
2022-12-14T07:41:12.164Z,26.83
2022-12-14T07:43:22.327Z,20.55
2022-12-14T07:44:24.699Z,27.83
2022-12-14T07:45:27.020Z,22.08
2022-12-14T07:46:32.235Z,28.92
2022-12-14T07:47:34.631Z,27.20
2022-12-14T07:48:37.638Z,24.70
2022-12-14T07:49:40.022Z,23.75
2022-12-14T07:50:42.377Z,23.50
2022-12-14T07:51:45.838Z,24.27
2022-12-14T07:52:48.129Z,23.63
2022-12-14T07:53:51.534Z,28.65
2022-12-14T07:54:53.883Z,26.23
2022-12-14T07:55:56.219Z,21.98
2022-12-14T07:56:58.592Z,23.08
2022-12-14T07:58:00.915Z,22.73
2022-12-14T07:59:04.772Z,23.05
2022-12-14T08:00:07.691Z,23.75
2022-12-14T08:01:15.203Z,25.55
2022-12-14T08:02:17.689Z,22.38
2022-12-14T08:03:20.152Z,24.48
2022-12-14T08:04:22.582Z,25.55
2022-12-14T08:05:24.959Z,24.08
2022-12-14T08:06:29.666Z,22.23
2022-12-14T08:07:32.019Z,23.60
2022-12-14T08:08:34.710Z,24.33
2022-12-14T08:09:37.153Z,24.42
2022-12-14T08:10:40.587Z,21.50
2022-12-14T08:11:43.028Z,21.38
2022-12-14T08:12:45.279Z,24.50
2022-12-14T08:13:47.889Z,21.90
2022-12-14T08:14:50.205Z,25.02
2022-12-14T08:15:52.539Z,22.30
2022-12-14T08:16:54.862Z,20.13
2022-12-14T08:17:57.243Z,21.58
2022-12-14T08:19:00.942Z,23.92
2022-12-14T08:20:04.102Z,21.40
2022-12-14T08:21:08.252Z,19.35
2022-12-14T08:22:11.534Z,22.30
2022-12-14T08:23:13.855Z,18.45
2022-12-14T08:24:17.071Z,18.23
2022-12-14T08:25:19.706Z,18.77
2022-12-14T08:26:24.040Z,21.08
2022-12-14T08:27:27.164Z,20.05
2022-12-14T08:28:31.154Z,20.92
2022-12-14T08:29:33.675Z,20.52
2022-12-14T08:30:40.245Z,19.63
2022-12-14T08:31:42.643Z,18.70
2022-12-14T08:32:44.978Z,20.80
2022-12-14T08:33:48.243Z,18.38
2022-12-14T08:34:50.668Z,17.65
2022-12-14T08:35:52.897Z,18.42
2022-12-14T08:36:55.254Z,19.30
2022-12-14T08:37:57.510Z,24.40
2022-12-14T08:39:02.908Z,18.88
2022-12-14T08:40:06.015Z,19.30
2022-12-14T08:41:10.605Z,18.48
2022-12-14T08:42:12.887Z,19.02
2022-12-14T08:43:16.444Z,19.23
2022-12-14T08:44:21.462Z,18.70
2022-12-14T08:45:23.769Z,18.50
2022-12-14T08:46:28.163Z,16.48
2022-12-14T08:47:30.532Z,15.90
2022-12-14T08:48:33.084Z,16.92
2022-12-14T08:49:35.539Z,19.25
2022-12-14T08:50:37.771Z,19.25
2022-12-14T08:51:40.029Z,18.95
2022-12-14T08:52:42.360Z,17.30
2022-12-14T08:53:47.639Z,21.48
2022-12-14T08:54:49.954Z,17.80
2022-12-14T08:55:52.245Z,19.27
2022-12-14T08:56:54.583Z,16.85
2022-12-14T08:57:56.939Z,18.83
2022-12-14T08:58:59.256Z,16.92
2022-12-14T09:00:02.705Z,20.20
2022-12-14T09:01:08.949Z,17.92
2022-12-14T09:02:11.410Z,19.45
2022-12-14T09:03:13.900Z,20.10
2022-12-14T09:04:16.253Z,21.80
2022-12-14T09:05:18.701Z,17.98
2022-12-14T09:06:26.442Z,18.67
2022-12-14T09:07:29.450Z,19.88
2022-12-14T09:08:32.715Z,18.63
2022-12-14T09:09:37.197Z,18.92
2022-12-14T09:10:39.499Z,19.75
2022-12-14T09:11:41.908Z,18.40
2022-12-14T09:12:44.251Z,18.75
2022-12-14T09:13:46.955Z,18.90
2022-12-14T09:14:50.226Z,19.38
2022-12-14T09:16:04.651Z,18.42
2022-12-14T09:17:07.457Z,16.65
2022-12-14T09:18:09.804Z,17.90
2022-12-14T09:19:12.681Z,17.63
2022-12-14T09:20:15.042Z,20.13
2022-12-14T09:21:18.066Z,20.35
2022-12-14T09:22:21.563Z,18.40
2022-12-14T09:23:25.565Z,21.02
2022-12-14T09:24:28.386Z,20.55
2022-12-14T09:25:30.680Z,18.42
2022-12-14T09:26:33.787Z,20.48
2022-12-14T09:27:36.370Z,15.13
2022-12-14T09:28:40.659Z,21.10
2022-12-14T09:29:43.525Z,17.60
2022-12-14T09:30:46.136Z,18.77
2022-12-14T09:31:48.656Z,21.05
2022-12-14T09:32:50.992Z,17.55
2022-12-14T09:33:54.800Z,19.08
2022-12-14T09:34:59.456Z,17.60
2022-12-14T09:36:07.026Z,21.60
2022-12-14T09:37:09.456Z,18.40
2022-12-14T09:38:11.785Z,16.02
2022-12-14T09:39:15.033Z,19.10
2022-12-14T09:40:17.757Z,15.90
2022-12-14T09:41:27.938Z,17.98
2022-12-14T09:42:52.977Z,16.27
2022-12-14T09:44:18.083Z,17.85
2022-12-14T09:45:32.762Z,19.00
2022-12-14T09:46:38.015Z,15.60
2022-12-14T09:48:07.351Z,16.15
2022-12-14T09:49:23.855Z,16.40
2022-12-14T09:50:27.127Z,17.45
2022-12-14T09:51:35.143Z,12.90
2022-12-14T09:52:43.061Z,15.43
2022-12-14T09:53:47.874Z,14.10
2022-12-14T09:54:50.490Z,14.43
2022-12-14T09:55:56.359Z,15.27
2022-12-14T09:57:39.147Z,11.48
2022-12-14T09:58:57.173Z,14.90
2022-12-14T09:59:59.486Z,15.48
2022-12-14T10:01:23.296Z,17.30
2022-12-14T10:02:46.443Z,17.67
2022-12-14T10:04:01.707Z,16.30
2022-12-14T10:05:38.780Z,16.48
2022-12-14T10:06:49.858Z,18.77
2022-12-14T10:08:05.482Z,22.27
2022-12-14T10:09:26.524Z,21.67
2022-12-14T10:10:38.964Z,26.13
2022-12-14T10:11:49.999Z,20.33
2022-12-14T10:13:10.947Z,17.27
2022-12-14T10:14:36.325Z,16.20
2022-12-14T10:16:25.125Z,15.02
2022-12-14T10:17:58.718Z,21.30
2022-12-14T10:19:20.017Z,19.15
2022-12-14T10:20:52.151Z,13.88
2022-12-14T10:21:57.448Z,15.23
2022-12-14T10:23:02.106Z,11.25
2022-12-14T10:24:07.349Z,11.45
2022-12-14T10:25:14.679Z,13.55
2022-12-14T10:26:19.909Z,13.75
2022-12-14T10:27:25.093Z,17.63
2022-12-14T10:28:37.335Z,13.05
2022-12-14T10:29:47.623Z,15.38
2022-12-14T10:30:57.032Z,13.48
2022-12-14T10:32:14.032Z,16.08
2022-12-14T10:33:21.881Z,12.55
2022-12-14T10:34:29.590Z,16.70
2022-12-14T10:35:46.730Z,14.55
2022-12-14T10:37:13.816Z,23.90
2022-12-14T10:38:21.893Z,23.52
2022-12-14T10:39:44.367Z,17.90
2022-12-14T10:40:57.823Z,23.40
2022-12-14T10:42:23.606Z,19.85
2022-12-14T10:43:41.048Z,22.05
2022-12-14T10:45:39.829Z,28.83
2022-12-14T10:46:47.128Z,18.77
2022-12-14T10:48:04.360Z,18.75
2022-12-14T10:49:21.498Z,15.27
2022-12-14T10:50:50.080Z,15.23
2022-12-14T10:52:19.884Z,18.15
2022-12-14T10:53:29.087Z,17.73
2022-12-14T10:54:37.272Z,13.18
2022-12-14T10:55:42.382Z,18.88
2022-12-14T10:56:49.861Z,13.30
2022-12-14T10:57:52.632Z,14.25
2022-12-14T10:59:21.208Z,15.00
2022-12-14T11:00:23.981Z,14.13
2022-12-14T11:01:27.628Z,19.88
2022-12-14T11:02:33.896Z,12.98
2022-12-14T11:03:36.751Z,13.02
2022-12-14T11:04:44.861Z,13.43
2022-12-14T11:06:04.537Z,14.43
2022-12-14T11:07:09.873Z,14.68
2022-12-14T11:08:42.669Z,14.18
2022-12-14T11:09:45.328Z,13.55
2022-12-14T11:10:48.405Z,12.88
2022-12-14T11:12:03.294Z,16.33
2022-12-14T11:13:18.027Z,13.90
2022-12-14T11:14:23.051Z,18.00
2022-12-14T11:15:46.445Z,12.25
2022-12-14T11:16:49.203Z,17.75
2022-12-14T11:18:02.447Z,11.63
2022-12-14T11:19:14.683Z,12.10
2022-12-14T11:20:25.247Z,10.30
2022-12-14T11:21:37.196Z,15.10
2022-12-14T11:22:51.301Z,9.55
2022-12-14T11:23:54.886Z,12.90
2022-12-14T11:24:58.024Z,12.50
2022-12-14T11:26:03.741Z,13.02
2022-12-14T11:27:09.390Z,11.45
2022-12-14T11:28:22.181Z,15.13
2022-12-14T11:29:39.327Z,11.90
2022-12-14T11:31:05.340Z,18.45
2022-12-14T11:32:20.798Z,11.30
2022-12-14T11:33:26.552Z,17.92
2022-12-14T11:34:37.766Z,15.93
2022-12-14T11:35:52.536Z,53.22
2022-12-14T11:36:54.962Z,41.33
2022-12-14T11:38:00.396Z,24.67
2022-12-14T11:39:14.702Z,25.20
2022-12-14T11:40:23.936Z,31.70
2022-12-14T11:41:38.339Z,17.17
2022-12-14T11:42:49.210Z,19.02
2022-12-14T11:44:22.625Z,13.48
2022-12-14T11:45:31.365Z,15.25
2022-12-14T11:46:46.555Z,16.52
2022-12-14T11:48:14.851Z,17.52
2022-12-14T11:49:30.180Z,10.98
2022-12-14T11:50:32.484Z,14.07
2022-12-14T11:51:34.889Z,14.10
2022-12-14T11:52:37.168Z,14.38
2022-12-14T11:53:40.621Z,14.55
2022-12-14T11:54:50.031Z,13.85
2022-12-14T11:55:58.606Z,12.75
2022-12-14T11:57:12.986Z,10.85
2022-12-14T11:58:19.996Z,14.50
2022-12-14T11:59:25.231Z,12.77
2022-12-14T12:00:50.629Z,11.38
2022-12-14T12:01:55.499Z,13.18
2022-12-14T12:03:27.585Z,12.63
2022-12-14T12:04:30.110Z,12.48
2022-12-14T12:05:34.574Z,10.60
2022-12-14T12:06:37.096Z,12.82
2022-12-14T12:07:55.956Z,12.30
2022-12-14T12:09:10.768Z,13.85
2022-12-14T12:10:13.026Z,10.68
2022-12-14T12:11:19.245Z,9.90
2022-12-14T12:12:23.279Z,14.18
2022-12-14T12:13:40.698Z,13.40
2022-12-14T12:14:44.964Z,21.38
2022-12-14T12:15:55.780Z,110.32
2022-12-14T12:16:58.784Z,44.80
2022-12-14T12:18:16.148Z,37.75
2022-12-14T12:19:35.887Z,32.55
2022-12-14T12:20:44.322Z,26.48
2022-12-14T12:21:47.342Z,18.88
2022-12-14T12:22:53.326Z,16.17
2022-12-14T12:24:22.556Z,19.02
2022-12-14T12:25:33.536Z,20.58
2022-12-14T12:26:56.188Z,15.05
2022-12-14T12:28:04.664Z,16.70
2022-12-14T12:29:19.629Z,13.73
2022-12-14T12:30:28.639Z,16.27
2022-12-14T12:31:43.493Z,14.13
2022-12-14T12:32:52.744Z,28.80
2022-12-14T12:34:00.465Z,13.20
2022-12-14T12:35:23.068Z,12.15
2022-12-14T12:36:25.719Z,13.70
2022-12-14T12:37:36.844Z,16.85
2022-12-14T12:39:05.518Z,14.82
2022-12-14T12:40:34.321Z,16.27
2022-12-14T12:41:46.364Z,16.17
2022-12-14T12:42:57.049Z,12.63
2022-12-14T12:44:05.198Z,15.27
2022-12-14T12:45:30.114Z,17.45
2022-12-14T12:47:14.858Z,12.85
2022-12-14T12:48:18.027Z,39.58
2022-12-14T12:49:20.865Z,46.05
2022-12-14T12:50:29.486Z,59.58
2022-12-14T12:51:41.128Z,50.15
2022-12-14T12:53:04.373Z,32.05
2022-12-14T12:54:11.685Z,29.10
2022-12-14T12:55:23.704Z,25.42
2022-12-14T12:56:39.791Z,18.38
2022-12-14T12:57:46.888Z,20.45
2022-12-14T12:58:53.106Z,17.67
2022-12-14T12:59:57.651Z,18.98
2022-12-14T13:01:05.117Z,15.02
2022-12-14T13:02:18.767Z,16.20
2022-12-14T13:03:37.541Z,21.13
2022-12-14T13:04:47.777Z,13.93
2022-12-14T13:05:57.499Z,13.98
2022-12-14T13:07:05.144Z,17.73
2022-12-14T13:08:32.648Z,15.55
2022-12-14T13:09:50.762Z,14.07
2022-12-14T13:12:38.438Z,12.90
2022-12-14T13:13:45.197Z,15.02
2022-12-14T13:14:49.916Z,12.77
2022-12-14T13:16:36.779Z,11.38
2022-12-14T13:17:45.464Z,14.18
2022-12-14T13:19:04.904Z,11.57
2022-12-14T13:20:22.718Z,12.32
2022-12-14T13:21:34.979Z,15.38
2022-12-14T13:22:38.597Z,11.65
2022-12-14T13:23:45.543Z,12.98
2022-12-14T13:24:57.008Z,16.40
2022-12-14T13:26:07.729Z,14.50
2022-12-14T13:27:47.439Z,12.00
2022-12-14T13:29:01.833Z,11.98
2022-12-14T13:30:31.321Z,10.55
2022-12-14T13:32:12.144Z,15.63
2022-12-14T13:33:42.473Z,10.77
2022-12-14T13:35:15.298Z,16.98
2022-12-14T13:37:01.261Z,17.52
2022-12-14T13:38:42.174Z,11.43
2022-12-14T13:40:31.770Z,12.15
2022-12-14T13:41:55.512Z,11.55
2022-12-14T13:43:05.639Z,14.52
2022-12-14T13:44:26.935Z,11.50
2022-12-14T13:45:42.564Z,12.02
2022-12-14T13:46:45.151Z,12.82
2022-12-14T13:47:55.356Z,11.50
2022-12-14T13:49:05.320Z,11.63
2022-12-14T13:50:41.925Z,12.80
2022-12-14T13:51:50.842Z,11.07
2022-12-14T13:53:01.047Z,15.02
2022-12-14T13:54:06.441Z,14.00
2022-12-14T13:55:30.597Z,18.85
2022-12-14T13:56:39.494Z,78.22
2022-12-14T13:57:42.733Z,65.68
2022-12-14T13:58:48.107Z,87.20
2022-12-14T13:59:53.047Z,52.42
2022-12-14T14:00:58.789Z,42.83
2022-12-14T14:02:02.636Z,29.10
2022-12-14T14:03:05.175Z,23.00
2022-12-14T14:04:10.489Z,19.77
2022-12-14T14:05:16.262Z,19.95
2022-12-14T14:06:29.136Z,19.40
2022-12-14T14:07:31.406Z,15.90
2022-12-14T14:08:41.499Z,13.85
2022-12-14T14:09:56.549Z,15.05
2022-12-14T14:11:36.574Z,15.55
2022-12-14T14:12:43.225Z,17.38
2022-12-14T14:13:45.495Z,13.93
2022-12-14T14:14:56.054Z,15.18
2022-12-14T14:16:27.376Z,18.60
2022-12-14T14:17:41.366Z,11.15
2022-12-14T14:19:19.650Z,13.77
2022-12-14T14:20:36.570Z,11.95
2022-12-14T14:22:14.363Z,14.43
2022-12-14T14:23:18.687Z,12.50
2022-12-14T14:24:22.181Z,12.20
2022-12-14T14:25:33.411Z,12.18
2022-12-14T14:26:36.582Z,11.63
2022-12-14T14:27:41.990Z,15.00
2022-12-14T14:28:49.654Z,13.07
2022-12-14T14:29:53.035Z,14.15
2022-12-14T14:30:58.331Z,12.38
2022-12-14T14:32:03.666Z,10.05
2022-12-14T14:33:47.860Z,11.52
2022-12-14T14:34:51.798Z,11.60
2022-12-14T14:36:16.339Z,9.55
2022-12-14T14:37:21.352Z,10.80
2022-12-14T14:38:28.758Z,9.30
2022-12-14T14:41:16.583Z,10.60
2022-12-14T14:42:23.181Z,11.68
2022-12-14T14:43:31.233Z,11.65
2022-12-14T14:44:35.778Z,11.25
2022-12-14T14:45:47.961Z,10.10
2022-12-14T14:46:51.044Z,11.15
2022-12-14T14:47:56.918Z,9.80
2022-12-14T14:49:00.067Z,11.88
2022-12-14T14:50:07.329Z,11.98
2022-12-14T14:51:28.908Z,11.02
2022-12-14T14:52:45.863Z,9.55
2022-12-14T14:53:50.286Z,12.32
2022-12-14T14:55:27.780Z,11.73
2022-12-14T14:56:29.796Z,16.42
2022-12-14T14:57:56.100Z,11.02
2022-12-14T14:59:17.022Z,63.45
2022-12-14T15:00:19.516Z,124.15